sensor_id;sensor_type;location;lat;lon;timestamp;pressure;altitude;pressure_sealevel;temperature;humidity
23616;BME280;11985;49.404;7.734;2022-07-23T00:00:49;97339.09;;;19.36;78.75
23616;BME280;11985;49.404;7.734;2022-07-23T00:02:51;97329.47;;;19.30;79.11
23616;BME280;11985;49.404;7.734;2022-07-23T00:04:53;97327.88;;;19.29;79.44
23616;BME280;11985;49.404;7.734;2022-07-23T00:06:54;97326.28;;;19.28;79.72
23616;BME280;11985;49.404;7.734;2022-07-23T00:08:56;97334.00;;;19.30;79.96
23616;BME280;11985;49.404;7.734;2022-07-23T00:10:57;97326.81;;;19.30;80.12
23616;BME280;11985;49.404;7.734;2022-07-23T00:12:59;97335.38;;;19.32;80.40
23616;BME280;11985;49.404;7.734;2022-07-23T00:15:01;97341.25;;;19.34;80.54
23616;BME280;11985;49.404;7.734;2022-07-23T00:17:05;97334.53;;;19.32;80.71
23616;BME280;11985;49.404;7.734;2022-07-23T00:19:06;97340.69;;;19.27;80.84
23616;BME280;11985;49.404;7.734;2022-07-23T00:21:08;97339.06;;;19.26;81.10
23616;BME280;11985;49.404;7.734;2022-07-23T00:23:10;97339.63;;;19.28;81.15
23616;BME280;11985;49.404;7.734;2022-07-23T00:25:11;97346.84;;;19.28;81.78
23616;BME280;11985;49.404;7.734;2022-07-23T00:27:13;97340.16;;;19.30;81.93
23616;BME280;11985;49.404;7.734;2022-07-23T00:29:14;97338.03;;;19.32;82.24
23616;BME280;11985;49.404;7.734;2022-07-23T00:31:16;97335.38;;;19.32;82.48
23616;BME280;11985;49.404;7.734;2022-07-23T00:33:19;97330.25;;;19.25;82.88
23616;BME280;11985;49.404;7.734;2022-07-23T00:35:23;97328.88;;;19.18;82.99
23616;BME280;11985;49.404;7.734;2022-07-23T00:37:25;97337.38;;;19.10;82.97
23616;BME280;11985;49.404;7.734;2022-07-23T00:39:27;97336.53;;;19.04;83.12
23616;BME280;11985;49.404;7.734;2022-07-23T00:41:29;97328.78;;;19.03;83.29
23616;BME280;11985;49.404;7.734;2022-07-23T00:43:30;97326.13;;;19.03;83.68
23616;BME280;11985;49.404;7.734;2022-07-23T00:45:32;97324.50;;;19.02;84.06
23616;BME280;11985;49.404;7.734;2022-07-23T00:47:34;97315.72;;;19.01;83.96
23616;BME280;11985;49.404;7.734;2022-07-23T00:49:37;97311.16;;;19.02;83.80
23616;BME280;11985;49.404;7.734;2022-07-23T00:51:38;97312.78;;;19.03;83.88
23616;BME280;11985;49.404;7.734;2022-07-23T00:53:40;97313.84;;;19.02;84.02
23616;BME280;11985;49.404;7.734;2022-07-23T00:55:42;97313.81;;;18.96;84.01
23616;BME280;11985;49.404;7.734;2022-07-23T00:57:44;97312.47;;;18.94;84.10
23616;BME280;11985;49.404;7.734;2022-07-23T00:59:45;97316.44;;;18.91;84.35
23616;BME280;11985;49.404;7.734;2022-07-23T01:01:47;97316.44;;;18.91;84.26
23616;BME280;11985;49.404;7.734;2022-07-23T01:03:49;97318.03;;;18.92;84.45
23616;BME280;11985;49.404;7.734;2022-07-23T01:05:52;97346.34;;;18.88;84.44
23616;BME280;11985;49.404;7.734;2022-07-23T01:07:54;97369.66;;;18.71;84.42
23616;BME280;11985;49.404;7.734;2022-07-23T01:09:56;97397.81;;;18.57;84.67
23616;BME280;11985;49.404;7.734;2022-07-23T01:11:59;97407.31;;;18.47;85.00
23616;BME280;11985;49.404;7.734;2022-07-23T01:14:08;97403.03;;;18.46;85.27
23616;BME280;11985;49.404;7.734;2022-07-23T01:16:09;97405.22;;;18.50;85.54
23616;BME280;11985;49.404;7.734;2022-07-23T01:18:11;97399.34;;;18.53;85.57
23616;BME280;11985;49.404;7.734;2022-07-23T01:20:13;97392.41;;;18.52;85.72
23616;BME280;11985;49.404;7.734;2022-07-23T01:22:18;97379.13;;;18.57;85.85
23616;BME280;11985;49.404;7.734;2022-07-23T01:24:21;97377.00;;;18.59;85.88
23616;BME280;11985;49.404;7.734;2022-07-23T01:26:23;97369.63;;;18.66;85.95
23616;BME280;11985;49.404;7.734;2022-07-23T01:28:26;97360.63;;;18.72;86.15
23616;BME280;11985;49.404;7.734;2022-07-23T01:30:27;97349.94;;;18.72;85.95
23616;BME280;11985;49.404;7.734;2022-07-23T01:32:32;97335.25;;;18.69;85.93
23616;BME280;11985;49.404;7.734;2022-07-23T01:34:34;97338.22;;;18.73;85.89
23616;BME280;11985;49.404;7.734;2022-07-23T01:36:36;97336.66;;;18.77;85.72
23616;BME280;11985;49.404;7.734;2022-07-23T01:38:38;97329.97;;;18.80;85.57
23616;BME280;11985;49.404;7.734;2022-07-23T01:40:42;97327.31;;;18.80;85.55
23616;BME280;11985;49.404;7.734;2022-07-23T01:42:43;97313.47;;;18.83;85.54
23616;BME280;11985;49.404;7.734;2022-07-23T01:44:45;97312.41;;;18.84;85.48
23616;BME280;11985;49.404;7.734;2022-07-23T01:46:46;97300.94;;;18.83;85.57
23616;BME280;11985;49.404;7.734;2022-07-23T01:48:48;97287.00;;;18.76;85.52
23616;BME280;11985;49.404;7.734;2022-07-23T01:50:50;97295.50;;;18.68;85.74
23616;BME280;11985;49.404;7.734;2022-07-23T01:52:52;97301.25;;;18.60;85.63
23616;BME280;11985;49.404;7.734;2022-07-23T01:54:53;97286.31;;;18.59;85.64
23616;BME280;11985;49.404;7.734;2022-07-23T01:56:57;97283.38;;;18.55;85.87
23616;BME280;11985;49.404;7.734;2022-07-23T01:58:59;97283.84;;;18.47;85.86
23616;BME280;11985;49.404;7.734;2022-07-23T02:01:00;97281.94;;;18.42;86.00
23616;BME280;11985;49.404;7.734;2022-07-23T02:03:02;97280.59;;;18.40;86.34
23616;BME280;11985;49.404;7.734;2022-07-23T02:05:04;97275.00;;;18.41;86.40
23616;BME280;11985;49.404;7.734;2022-07-23T02:07:06;97269.13;;;18.39;86.54
23616;BME280;11985;49.404;7.734;2022-07-23T02:09:08;97264.06;;;18.38;86.62
23616;BME280;11985;49.404;7.734;2022-07-23T02:11:09;97270.97;;;18.39;86.82
23616;BME280;11985;49.404;7.734;2022-07-23T02:13:12;97276.31;;;18.39;86.89
23616;BME280;11985;49.404;7.734;2022-07-23T02:15:14;97276.06;;;18.40;86.99
23616;BME280;11985;49.404;7.734;2022-07-23T02:17:16;97282.44;;;18.39;87.17
23616;BME280;11985;49.404;7.734;2022-07-23T02:19:17;97282.94;;;18.36;87.06
23616;BME280;11985;49.404;7.734;2022-07-23T02:21:19;97276.53;;;18.32;87.14
23616;BME280;11985;49.404;7.734;2022-07-23T02:23:21;97282.38;;;18.29;87.01
23616;BME280;11985;49.404;7.734;2022-07-23T02:25:23;97294.03;;;18.23;87.06
23616;BME280;11985;49.404;7.734;2022-07-23T02:27:24;97316.88;;;18.14;86.98
23616;BME280;11985;49.404;7.734;2022-07-23T02:29:27;97315.22;;;18.08;87.14
23616;BME280;11985;49.404;7.734;2022-07-23T02:31:29;97327.44;;;18.04;87.13
23616;BME280;11985;49.404;7.734;2022-07-23T02:33:31;97340.44;;;17.95;87.14
23616;BME280;11985;49.404;7.734;2022-07-23T02:35:33;97347.03;;;17.92;87.20
23616;BME280;11985;49.404;7.734;2022-07-23T02:37:34;97358.22;;;17.89;87.35
23616;BME280;11985;49.404;7.734;2022-07-23T02:39:36;97364.03;;;17.86;87.39
23616;BME280;11985;49.404;7.734;2022-07-23T02:41:37;97353.38;;;17.86;87.45
23616;BME280;11985;49.404;7.734;2022-07-23T02:43:39;97349.66;;;17.87;87.61
23616;BME280;11985;49.404;7.734;2022-07-23T02:45:42;97357.66;;;17.87;87.73
23616;BME280;11985;49.404;7.734;2022-07-23T02:47:44;97342.22;;;17.89;87.91
23616;BME280;11985;49.404;7.734;2022-07-23T02:49:46;97347.56;;;17.89;87.94
23616;BME280;11985;49.404;7.734;2022-07-23T02:51:48;97346.25;;;17.92;88.16
23616;BME280;11985;49.404;7.734;2022-07-23T02:53:49;97341.72;;;17.92;88.22
23616;BME280;11985;49.404;7.734;2022-07-23T02:55:51;97350.28;;;17.94;88.26
23616;BME280;11985;49.404;7.734;2022-07-23T02:57:54;97351.88;;;17.96;88.21
23616;BME280;11985;49.404;7.734;2022-07-23T02:59:56;97355.09;;;17.98;88.37
23616;BME280;11985;49.404;7.734;2022-07-23T03:01:59;97337.56;;;18.02;88.39
23616;BME280;11985;49.404;7.734;2022-07-23T03:04:01;97326.34;;;18.00;88.53
23616;BME280;11985;49.404;7.734;2022-07-23T03:06:03;97307.59;;;17.89;88.68
23616;BME280;11985;49.404;7.734;2022-07-23T03:08:04;97300.63;;;17.83;88.91
23616;BME280;11985;49.404;7.734;2022-07-23T03:10:06;97289.31;;;17.76;89.10
23616;BME280;11985;49.404;7.734;2022-07-23T03:12:08;97293.75;;;17.71;89.24
23616;BME280;11985;49.404;7.734;2022-07-23T03:14:11;97299.88;;;17.66;89.54
23616;BME280;11985;49.404;7.734;2022-07-23T03:16:14;97304.63;;;17.64;89.83
23616;BME280;11985;49.404;7.734;2022-07-23T03:18:17;97296.69;;;17.69;90.03
23616;BME280;11985;49.404;7.734;2022-07-23T03:20:19;97301.47;;;17.67;90.33
23616;BME280;11985;49.404;7.734;2022-07-23T03:22:20;97310.53;;;17.66;90.62
23616;BME280;11985;49.404;7.734;2022-07-23T03:24:22;97314.72;;;17.62;90.80
23616;BME280;11985;49.404;7.734;2022-07-23T03:26:43;97310.53;;;17.66;91.00
23616;BME280;11985;49.404;7.734;2022-07-23T03:28:46;97316.94;;;17.70;91.23
23616;BME280;11985;49.404;7.734;2022-07-23T03:30:48;97321.00;;;17.73;91.48
23616;BME280;11985;49.404;7.734;2022-07-23T03:32:50;97315.97;;;17.76;91.83
23616;BME280;11985;49.404;7.734;2022-07-23T03:34:53;97333.59;;;17.77;91.99
23616;BME280;11985;49.404;7.734;2022-07-23T03:36:55;97344.25;;;17.77;92.21
23616;BME280;11985;49.404;7.734;2022-07-23T03:38:56;97347.44;;;17.79;92.27
23616;BME280;11985;49.404;7.734;2022-07-23T03:40:58;97354.91;;;17.77;92.36
23616;BME280;11985;49.404;7.734;2022-07-23T03:42:59;97358.84;;;17.75;92.41
23616;BME280;11985;49.404;7.734;2022-07-23T03:45:04;97366.75;;;17.69;92.56
23616;BME280;11985;49.404;7.734;2022-07-23T03:47:06;97351.03;;;17.68;92.63
23616;BME280;11985;49.404;7.734;2022-07-23T03:49:09;97344.72;;;17.74;92.84
23616;BME280;11985;49.404;7.734;2022-07-23T03:51:12;97348.75;;;17.77;92.96
23616;BME280;11985;49.404;7.734;2022-07-23T03:53:14;97349.06;;;17.80;93.03
23616;BME280;11985;49.404;7.734;2022-07-23T03:55:16;97340.81;;;17.82;92.94
23616;BME280;11985;49.404;7.734;2022-07-23T03:57:18;97330.47;;;17.85;92.74
23616;BME280;11985;49.404;7.734;2022-07-23T03:59:31;97331.53;;;17.84;92.55
23616;BME280;11985;49.404;7.734;2022-07-23T04:01:43;97331.47;;;17.79;92.46
23616;BME280;11985;49.404;7.734;2022-07-23T04:03:56;97336.47;;;17.76;92.50
23616;BME280;11985;49.404;7.734;2022-07-23T04:05:57;97339.06;;;17.71;92.60
23616;BME280;11985;49.404;7.734;2022-07-23T04:08:00;97342.47;;;17.66;92.70
23616;BME280;11985;49.404;7.734;2022-07-23T04:10:02;97343.50;;;17.65;92.87
23616;BME280;11985;49.404;7.734;2022-07-23T04:12:04;97341.38;;;17.62;93.02
23616;BME280;11985;49.404;7.734;2022-07-23T04:14:06;97340.31;;;17.63;93.40
23616;BME280;11985;49.404;7.734;2022-07-23T04:16:08;97341.38;;;17.62;93.58
23616;BME280;11985;49.404;7.734;2022-07-23T04:18:10;97351.69;;;17.58;93.74
23616;BME280;11985;49.404;7.734;2022-07-23T04:20:11;97363.66;;;17.56;93.89
23616;BME280;11985;49.404;7.734;2022-07-23T04:22:13;97369.78;;;17.56;94.09
23616;BME280;11985;49.404;7.734;2022-07-23T04:24:16;97381.72;;;17.54;94.20
23616;BME280;11985;49.404;7.734;2022-07-23T04:26:17;97388.69;;;17.55;94.33
23616;BME280;11985;49.404;7.734;2022-07-23T04:28:19;97395.31;;;17.52;94.30
23616;BME280;11985;49.404;7.734;2022-07-23T04:30:21;97405.16;;;17.52;94.48
23616;BME280;11985;49.404;7.734;2022-07-23T04:32:23;97408.94;;;17.56;94.51
23616;BME280;11985;49.404;7.734;2022-07-23T04:34:25;97397.97;;;17.52;94.62
23616;BME280;11985;49.404;7.734;2022-07-23T04:36:27;97399.81;;;17.52;94.60
23616;BME280;11985;49.404;7.734;2022-07-23T04:38:28;97405.69;;;17.54;94.89
23616;BME280;11985;49.404;7.734;2022-07-23T04:40:32;97405.22;;;17.57;94.98
23616;BME280;11985;49.404;7.734;2022-07-23T04:44:45;97416.91;;;17.73;95.00
23616;BME280;11985;49.404;7.734;2022-07-23T04:46:47;97424.78;;;17.84;95.20
23616;BME280;11985;49.404;7.734;2022-07-23T04:48:48;97411.00;;;17.92;95.02
23616;BME280;11985;49.404;7.734;2022-07-23T04:50:50;97411.31;;;17.96;94.95
23616;BME280;11985;49.404;7.734;2022-07-23T04:52:51;97402.59;;;18.01;94.69
23616;BME280;11985;49.404;7.734;2022-07-23T04:54:53;97410.06;;;18.04;94.52
23616;BME280;11985;49.404;7.734;2022-07-23T04:56:56;97414.34;;;18.05;94.43
23616;BME280;11985;49.404;7.734;2022-07-23T04:58:57;97417.56;;;18.07;94.26
23616;BME280;11985;49.404;7.734;2022-07-23T05:00:59;97411.19;;;18.08;94.18
23616;BME280;11985;49.404;7.734;2022-07-23T05:03:00;97404.78;;;18.09;94.05
23616;BME280;11985;49.404;7.734;2022-07-23T05:05:02;97410.13;;;18.09;94.09
23616;BME280;11985;49.404;7.734;2022-07-23T05:07:04;97412.78;;;18.09;94.04
23616;BME280;11985;49.404;7.734;2022-07-23T05:09:05;97414.66;;;18.08;93.84
23616;BME280;11985;49.404;7.734;2022-07-23T05:11:07;97420.78;;;18.09;93.75
23616;BME280;11985;49.404;7.734;2022-07-23T05:13:10;97415.44;;;18.09;93.50
23616;BME280;11985;49.404;7.734;2022-07-23T05:15:12;97409.63;;;18.12;93.65
23616;BME280;11985;49.404;7.734;2022-07-23T05:17:13;97414.97;;;18.12;93.62
23616;BME280;11985;49.404;7.734;2022-07-23T05:19:15;97419.97;;;18.08;93.78
23616;BME280;11985;49.404;7.734;2022-07-23T05:21:16;97423.22;;;18.10;93.75
23616;BME280;11985;49.404;7.734;2022-07-23T05:23:18;97423.75;;;18.12;93.77
23616;BME280;11985;49.404;7.734;2022-07-23T05:25:19;97419.78;;;18.15;93.91
23616;BME280;11985;49.404;7.734;2022-07-23T05:27:21;97425.69;;;18.17;93.95
23616;BME280;11985;49.404;7.734;2022-07-23T05:29:24;97431.00;;;18.17;93.88
23616;BME280;11985;49.404;7.734;2022-07-23T05:31:25;97429.94;;;18.18;93.68
23616;BME280;11985;49.404;7.734;2022-07-23T05:33:27;97424.63;;;18.18;93.48
23616;BME280;11985;49.404;7.734;2022-07-23T05:35:29;97435.78;;;18.15;93.34
23616;BME280;11985;49.404;7.734;2022-07-23T05:37:30;97436.88;;;18.19;92.84
23616;BME280;11985;49.404;7.734;2022-07-23T05:39:32;97430.81;;;18.24;92.62
23616;BME280;11985;49.404;7.734;2022-07-23T05:41:34;97437.31;;;18.33;92.35
23616;BME280;11985;49.404;7.734;2022-07-23T05:43:35;97438.91;;;18.34;92.04
23616;BME280;11985;49.404;7.734;2022-07-23T05:45:38;97447.56;;;18.46;91.70
23616;BME280;11985;49.404;7.734;2022-07-23T05:47:41;97448.75;;;18.55;91.64
23616;BME280;11985;49.404;7.734;2022-07-23T05:49:43;97464.81;;;18.60;91.13
23616;BME280;11985;49.404;7.734;2022-07-23T05:51:45;97461.03;;;18.56;90.54
23616;BME280;11985;49.404;7.734;2022-07-23T05:53:46;97460.16;;;18.51;90.22
23616;BME280;11985;49.404;7.734;2022-07-23T05:55:48;97467.69;;;18.59;89.84
23616;BME280;11985;49.404;7.734;2022-07-23T05:57:50;97470.94;;;18.61;89.70
23616;BME280;11985;49.404;7.734;2022-07-23T05:59:51;97475.09;;;18.52;89.26
23616;BME280;11985;49.404;7.734;2022-07-23T06:01:54;97473.44;;;18.45;88.93
23616;BME280;11985;49.404;7.734;2022-07-23T06:03:56;97480.91;;;18.43;88.71
23616;BME280;11985;49.404;7.734;2022-07-23T06:05:57;97488.84;;;18.38;88.44
23616;BME280;11985;49.404;7.734;2022-07-23T06:07:59;97488.72;;;18.28;88.45
23616;BME280;11985;49.404;7.734;2022-07-23T06:10:01;97489.22;;;18.25;88.45
23616;BME280;11985;49.404;7.734;2022-07-23T06:12:02;97500.50;;;18.32;88.58
23616;BME280;11985;49.404;7.734;2022-07-23T06:14:04;97493.53;;;18.31;88.89
23616;BME280;11985;49.404;7.734;2022-07-23T06:16:06;97473.31;;;18.35;89.14
23616;BME280;11985;49.404;7.734;2022-07-23T06:18:09;97456.84;;;18.38;89.23
23616;BME280;11985;49.404;7.734;2022-07-23T06:20:11;97465.88;;;18.37;89.50
23616;BME280;11985;49.404;7.734;2022-07-23T06:22:13;97462.13;;;18.33;89.47
23616;BME280;11985;49.404;7.734;2022-07-23T06:24:15;97473.84;;;18.32;89.66
23616;BME280;11985;49.404;7.734;2022-07-23T06:26:16;97469.59;;;18.36;89.67
23616;BME280;11985;49.404;7.734;2022-07-23T06:28:18;97470.97;;;18.39;89.97
23616;BME280;11985;49.404;7.734;2022-07-23T06:30:19;97475.00;;;18.41;90.13
23616;BME280;11985;49.404;7.734;2022-07-23T06:32:21;97473.97;;;18.47;90.26
23616;BME280;11985;49.404;7.734;2022-07-23T06:34:24;97475.16;;;18.57;90.23
23616;BME280;11985;49.404;7.734;2022-07-23T06:36:26;97470.16;;;18.65;90.44
23616;BME280;11985;49.404;7.734;2022-07-23T06:38:27;97473.44;;;18.67;90.36
23616;BME280;11985;49.404;7.734;2022-07-23T06:40:29;97471.34;;;18.75;90.12
23616;BME280;11985;49.404;7.734;2022-07-23T06:42:30;97473.25;;;18.79;89.89
23616;BME280;11985;49.404;7.734;2022-07-23T06:44:32;97477.31;;;18.87;89.90
23616;BME280;11985;49.404;7.734;2022-07-23T06:46:33;97476.88;;;18.95;89.83
23616;BME280;11985;49.404;7.734;2022-07-23T06:48:35;97485.38;;;18.92;89.50
23616;BME280;11985;49.404;7.734;2022-07-23T06:50:38;97478.19;;;18.92;89.24
23616;BME280;11985;49.404;7.734;2022-07-23T06:52:39;97485.25;;;19.09;89.05
23616;BME280;11985;49.404;7.734;2022-07-23T06:54:41;97482.16;;;19.22;89.20
23616;BME280;11985;49.404;7.734;2022-07-23T06:56:42;97488.16;;;19.39;88.76
23616;BME280;11985;49.404;7.734;2022-07-23T06:58:44;97485.56;;;19.49;88.45
23616;BME280;11985;49.404;7.734;2022-07-23T07:00:46;97491.16;;;19.48;88.02
23616;BME280;11985;49.404;7.734;2022-07-23T07:02:47;97491.44;;;19.51;87.70
23616;BME280;11985;49.404;7.734;2022-07-23T07:04:49;97498.44;;;19.58;87.51
23616;BME280;11985;49.404;7.734;2022-07-23T07:06:52;97496.91;;;19.62;87.08
23616;BME280;11985;49.404;7.734;2022-07-23T07:08:54;97493.09;;;19.58;86.73
23616;BME280;11985;49.404;7.734;2022-07-23T07:10:56;97498.00;;;19.66;86.44
23616;BME280;11985;49.404;7.734;2022-07-23T07:12:57;97505.50;;;19.74;86.11
23616;BME280;11985;49.404;7.734;2022-07-23T07:14:59;97510.34;;;19.82;85.76
23616;BME280;11985;49.404;7.734;2022-07-23T07:17:00;97510.38;;;19.87;85.44
23616;BME280;11985;49.404;7.734;2022-07-23T07:19:02;97509.94;;;20.00;85.28
23616;BME280;11985;49.404;7.734;2022-07-23T07:21:03;97511.81;;;20.00;84.93
23616;BME280;11985;49.404;7.734;2022-07-23T07:23:06;97511.03;;;20.04;84.24
23616;BME280;11985;49.404;7.734;2022-07-23T07:25:08;97512.59;;;19.95;83.97
23616;BME280;11985;49.404;7.734;2022-07-23T07:27:10;97508.84;;;19.96;83.93
23616;BME280;11985;49.404;7.734;2022-07-23T07:29:12;97506.72;;;19.93;83.53
23616;BME280;11985;49.404;7.734;2022-07-23T07:31:13;97516.88;;;19.96;83.38
23616;BME280;11985;49.404;7.734;2022-07-23T07:33:15;97515.81;;;20.02;83.51
23616;BME280;11985;49.404;7.734;2022-07-23T07:35:16;97516.13;;;20.06;83.44
23616;BME280;11985;49.404;7.734;2022-07-23T07:37:18;97523.91;;;20.13;83.15
23616;BME280;11985;49.404;7.734;2022-07-23T07:39:21;97522.84;;;20.19;83.01
23616;BME280;11985;49.404;7.734;2022-07-23T07:41:22;97533.75;;;20.07;82.78
23616;BME280;11985;49.404;7.734;2022-07-23T07:43:26;97523.91;;;20.13;82.61
23616;BME280;11985;49.404;7.734;2022-07-23T07:45:27;97527.72;;;20.32;82.66
23616;BME280;11985;49.404;7.734;2022-07-23T07:47:29;97530.75;;;20.51;82.20
23616;BME280;11985;49.404;7.734;2022-07-23T07:49:30;97538.03;;;20.66;81.91
23616;BME280;11985;49.404;7.734;2022-07-23T07:51:32;97541.00;;;20.74;81.21
23616;BME280;11985;49.404;7.734;2022-07-23T07:53:34;97533.22;;;20.68;80.87
23616;BME280;11985;49.404;7.734;2022-07-23T07:55:37;97539.66;;;20.67;80.39
23616;BME280;11985;49.404;7.734;2022-07-23T07:57:39;97542.34;;;20.72;80.22
23616;BME280;11985;49.404;7.734;2022-07-23T07:59:40;97547.44;;;20.78;79.75
23616;BME280;11985;49.404;7.734;2022-07-23T08:01:42;97549.06;;;20.85;79.42
23616;BME280;11985;49.404;7.734;2022-07-23T08:03:43;97548.81;;;20.96;79.08
23616;BME280;11985;49.404;7.734;2022-07-23T08:05:45;97547.47;;;20.99;78.78
23616;BME280;11985;49.404;7.734;2022-07-23T08:07:46;97548.28;;;21.15;78.65
23616;BME280;11985;49.404;7.734;2022-07-23T08:09:48;97544.53;;;21.21;78.11
23616;BME280;11985;49.404;7.734;2022-07-23T08:11:51;97548.03;;;21.21;77.49
23616;BME280;11985;49.404;7.734;2022-07-23T08:13:53;97547.25;;;21.16;77.23
23616;BME280;11985;49.404;7.734;2022-07-23T08:15:54;97550.19;;;21.24;77.15
23616;BME280;11985;49.404;7.734;2022-07-23T08:17:56;97552.34;;;21.43;76.96
23616;BME280;11985;49.404;7.734;2022-07-23T08:19:57;97540.81;;;21.57;77.14
23616;BME280;11985;49.404;7.734;2022-07-23T08:21:59;97545.88;;;21.79;76.79
23616;BME280;11985;49.404;7.734;2022-07-23T08:24:00;97551.47;;;22.13;76.32
23616;BME280;11985;49.404;7.734;2022-07-23T08:26:02;97545.97;;;22.49;75.86
23616;BME280;11985;49.404;7.734;2022-07-23T08:28:06;97547.75;;;22.69;74.75
23616;BME280;11985;49.404;7.734;2022-07-23T08:30:08;97555.13;;;22.98;74.02
23616;BME280;11985;49.404;7.734;2022-07-23T08:32:10;97552.28;;;23.23;73.51
23616;BME280;11985;49.404;7.734;2022-07-23T08:34:12;97548.25;;;23.21;72.73
23616;BME280;11985;49.404;7.734;2022-07-23T08:36:13;97549.56;;;22.84;72.35
23616;BME280;11985;49.404;7.734;2022-07-23T08:38:17;97541.94;;;22.47;71.54
23616;BME280;11985;49.404;7.734;2022-07-23T08:40:20;97557.72;;;22.58;71.92
23616;BME280;11985;49.404;7.734;2022-07-23T08:42:21;97553.03;;;22.84;71.36
23616;BME280;11985;49.404;7.734;2022-07-23T08:44:24;97553.78;;;23.00;71.37
23616;BME280;11985;49.404;7.734;2022-07-23T08:46:27;97560.22;;;23.04;70.96
23616;BME280;11985;49.404;7.734;2022-07-23T08:48:30;97554.69;;;23.25;70.58
23616;BME280;11985;49.404;7.734;2022-07-23T08:50:32;97554.88;;;23.33;69.94
23616;BME280;11985;49.404;7.734;2022-07-23T08:52:37;97557.25;;;23.40;69.57
23616;BME280;11985;49.404;7.734;2022-07-23T08:54:40;97553.00;;;23.34;69.19
23616;BME280;11985;49.404;7.734;2022-07-23T08:56:41;97558.34;;;23.39;68.97
23616;BME280;11985;49.404;7.734;2022-07-23T08:58:43;97560.63;;;23.56;68.62
23616;BME280;11985;49.404;7.734;2022-07-23T09:00:46;97559.44;;;23.72;68.14
23616;BME280;11985;49.404;7.734;2022-07-23T09:02:49;97566.03;;;23.85;67.63
23616;BME280;11985;49.404;7.734;2022-07-23T09:04:51;97559.25;;;23.58;66.98
23616;BME280;11985;49.404;7.734;2022-07-23T09:06:52;97562.28;;;23.12;66.99
23616;BME280;11985;49.404;7.734;2022-07-23T09:08:54;97566.59;;;23.08;67.50
23616;BME280;11985;49.404;7.734;2022-07-23T09:10:57;97565.91;;;23.32;67.47
23616;BME280;11985;49.404;7.734;2022-07-23T09:12:59;97570.78;;;23.59;67.27
23616;BME280;11985;49.404;7.734;2022-07-23T09:15:04;97568.97;;;23.54;66.80
23616;BME280;11985;49.404;7.734;2022-07-23T09:17:12;97561.16;;;23.87;66.52
23616;BME280;11985;49.404;7.734;2022-07-23T09:19:14;97554.88;;;24.20;66.06
23616;BME280;11985;49.404;7.734;2022-07-23T09:21:22;97556.50;;;24.45;65.64
23616;BME280;11985;49.404;7.734;2022-07-23T09:23:37;97550.53;;;24.48;64.81
23616;BME280;11985;49.404;7.734;2022-07-23T09:25:39;97552.97;;;24.50;64.46
23616;BME280;11985;49.404;7.734;2022-07-23T09:27:48;97550.09;;;24.65;64.42
23616;BME280;11985;49.404;7.734;2022-07-23T09:29:55;97555.53;;;24.79;63.95
23616;BME280;11985;49.404;7.734;2022-07-23T09:31:58;97554.59;;;24.89;63.74
23616;BME280;11985;49.404;7.734;2022-07-23T09:34:10;97549.34;;;24.36;63.21
23616;BME280;11985;49.404;7.734;2022-07-23T09:36:12;97552.06;;;24.31;63.10
23616;BME280;11985;49.404;7.734;2022-07-23T09:38:15;97553.97;;;24.30;63.06
23616;BME280;11985;49.404;7.734;2022-07-23T09:40:17;97548.28;;;24.32;62.87
23616;BME280;11985;49.404;7.734;2022-07-23T09:42:19;97552.13;;;24.26;62.83
23616;BME280;11985;49.404;7.734;2022-07-23T09:44:21;97557.88;;;24.19;62.53
23616;BME280;11985;49.404;7.734;2022-07-23T09:46:24;97554.31;;;24.23;62.38
23616;BME280;11985;49.404;7.734;2022-07-23T09:48:26;97558.09;;;24.22;62.21
23616;BME280;11985;49.404;7.734;2022-07-23T09:50:29;97549.53;;;24.44;62.13
23616;BME280;11985;49.404;7.734;2022-07-23T09:52:33;97555.16;;;24.67;61.89
23616;BME280;11985;49.404;7.734;2022-07-23T09:54:37;97554.13;;;24.63;61.36
23616;BME280;11985;49.404;7.734;2022-07-23T09:56:39;97547.75;;;24.35;60.92
23616;BME280;11985;49.404;7.734;2022-07-23T09:58:41;97552.03;;;24.12;60.56
23616;BME280;11985;49.404;7.734;2022-07-23T10:00:50;97554.66;;;23.59;60.37
23616;BME280;11985;49.404;7.734;2022-07-23T10:02:52;97553.88;;;23.58;61.00
23616;BME280;11985;49.404;7.734;2022-07-23T10:04:55;97552.66;;;23.75;60.97
23616;BME280;11985;49.404;7.734;2022-07-23T10:06:58;97555.00;;;24.10;61.09
23616;BME280;11985;49.404;7.734;2022-07-23T10:09:01;97557.19;;;24.32;60.88
23616;BME280;11985;49.404;7.734;2022-07-23T10:11:03;97549.97;;;24.52;60.45
23616;BME280;11985;49.404;7.734;2022-07-23T10:13:05;97553.53;;;24.47;60.13
23616;BME280;11985;49.404;7.734;2022-07-23T10:15:21;97561.66;;;24.66;60.04
23616;BME280;11985;49.404;7.734;2022-07-23T10:17:22;97552.41;;;24.91;59.56
23616;BME280;11985;49.404;7.734;2022-07-23T10:19:24;97553.59;;;25.22;59.15
23616;BME280;11985;49.404;7.734;2022-07-23T10:21:34;97551.09;;;25.45;58.83
23616;BME280;11985;49.404;7.734;2022-07-23T10:23:42;97552.53;;;25.70;58.12
23616;BME280;11985;49.404;7.734;2022-07-23T10:25:55;97546.41;;;25.97;57.62
23616;BME280;11985;49.404;7.734;2022-07-23T10:28:06;97550.03;;;26.20;56.75
23616;BME280;11985;49.404;7.734;2022-07-23T10:30:13;97548.25;;;26.15;55.96
23616;BME280;11985;49.404;7.734;2022-07-23T10:32:24;97555.25;;;26.16;55.56
23616;BME280;11985;49.404;7.734;2022-07-23T10:34:35;97550.63;;;26.03;55.03
23616;BME280;11985;49.404;7.734;2022-07-23T10:36:44;97545.84;;;26.00;54.53
23616;BME280;11985;49.404;7.734;2022-07-23T10:38:52;97555.25;;;26.16;54.17
23616;BME280;11985;49.404;7.734;2022-07-23T10:40:57;97555.16;;;26.21;53.71
23616;BME280;11985;49.404;7.734;2022-07-23T10:43:00;97551.44;;;26.31;53.31
23616;BME280;11985;49.404;7.734;2022-07-23T10:45:22;97555.03;;;26.40;53.02
23616;BME280;11985;49.404;7.734;2022-07-23T10:47:25;97540.63;;;26.58;52.71
23616;BME280;11985;49.404;7.734;2022-07-23T10:49:41;97540.28;;;26.88;52.52
23616;BME280;11985;49.404;7.734;2022-07-23T10:54:22;97552.06;;;26.92;51.94